createdAt,value
2019-06-01T00:01:32.441Z,17.20
2019-06-01T00:05:42.757Z,17.20
2019-06-01T00:09:53.108Z,17.10
2019-06-01T00:14:03.481Z,17.00
2019-06-01T00:18:13.783Z,16.90
2019-06-01T00:22:24.009Z,16.90
2019-06-01T00:26:34.275Z,16.80
2019-06-01T00:30:45.746Z,16.80
2019-06-01T00:34:56.137Z,16.70
2019-06-01T00:39:07.457Z,16.60
2019-06-01T00:43:17.834Z,16.50
2019-06-01T00:47:28.184Z,16.50
2019-06-01T00:51:38.508Z,16.50
2019-06-01T00:55:49.436Z,16.50
2019-06-01T00:59:59.840Z,16.50
2019-06-01T01:04:11.667Z,16.40
2019-06-01T01:08:22.043Z,16.50
2019-06-01T01:12:34.122Z,16.40
2019-06-01T01:16:45.480Z,16.40
2019-06-01T01:20:56.287Z,16.40
2019-06-01T01:25:07.393Z,16.30
2019-06-01T01:29:17.647Z,16.30
2019-06-01T01:33:27.881Z,16.30
2019-06-01T01:37:38.260Z,16.30
2019-06-01T01:41:48.485Z,16.30
2019-06-01T01:45:59.008Z,16.20
2019-06-01T01:50:10.256Z,16.10
2019-06-01T01:54:20.765Z,16.00
2019-06-01T01:58:31.108Z,16.00
2019-06-01T02:02:41.342Z,16.00
2019-06-01T02:06:51.836Z,15.90
2019-06-01T02:11:02.085Z,15.90
2019-06-01T02:15:12.515Z,15.90
2019-06-01T02:19:22.760Z,15.90
2019-06-01T02:23:33.133Z,15.80
2019-06-01T02:27:43.426Z,15.80
2019-06-01T02:31:54.698Z,15.70
2019-06-01T02:36:05.486Z,15.60
2019-06-01T02:40:17.158Z,15.50
2019-06-01T02:44:27.481Z,15.40
2019-06-01T02:48:37.788Z,15.40
2019-06-01T02:52:48.212Z,15.40
2019-06-01T02:57:00.138Z,15.50
2019-06-01T03:01:16.141Z,15.50
2019-06-01T03:05:26.619Z,15.40
2019-06-01T03:09:39.680Z,15.40
2019-06-01T03:13:53.125Z,15.50
2019-06-01T03:18:04.025Z,15.60
2019-06-01T03:22:15.846Z,15.60
2019-06-01T03:26:28.758Z,15.60
2019-06-01T03:30:45.359Z,15.60
2019-06-01T03:34:55.629Z,15.60
2019-06-01T03:39:08.820Z,15.60
2019-06-01T03:43:20.087Z,15.60
2019-06-01T03:47:30.497Z,15.70
2019-06-01T03:51:40.821Z,15.70
2019-06-01T03:55:51.406Z,15.70
2019-06-01T04:00:03.204Z,15.70
2019-06-01T04:04:13.875Z,15.60
2019-06-01T04:08:24.247Z,15.70
2019-06-01T04:12:34.601Z,15.90
2019-06-01T04:16:44.858Z,16.20
2019-06-01T04:20:55.064Z,16.50
2019-06-01T04:25:06.495Z,16.80
2019-06-01T04:29:16.727Z,17.30
2019-06-01T04:33:26.967Z,17.60
2019-06-01T04:37:37.310Z,18.00
2019-06-01T04:41:47.519Z,18.20
2019-06-01T04:45:57.747Z,18.50
2019-06-01T04:50:08.775Z,18.80
2019-06-01T04:54:19.265Z,19.10
2019-06-01T04:58:29.798Z,19.20
2019-06-01T05:02:40.185Z,19.40
2019-06-01T05:06:50.606Z,19.60
2019-06-01T05:11:05.049Z,19.80
2019-06-01T05:15:15.940Z,19.80
2019-06-01T05:19:26.348Z,20.20
2019-06-01T05:23:36.782Z,20.60
2019-06-01T05:27:47.123Z,20.80
2019-06-01T05:31:57.496Z,21.00
2019-06-01T05:36:08.139Z,21.20
2019-06-01T05:40:19.814Z,21.40
2019-06-01T05:44:30.177Z,21.70
2019-06-01T05:48:40.511Z,22.00
2019-06-01T05:52:51.023Z,22.10
2019-06-01T05:57:01.325Z,22.50
2019-06-01T06:01:12.350Z,22.50
2019-06-01T06:05:22.893Z,22.90
2019-06-01T06:09:33.138Z,22.80
2019-06-01T06:13:43.576Z,22.20
2019-06-01T06:17:53.823Z,22.20
2019-06-01T06:22:04.078Z,22.90
2019-06-01T06:26:15.486Z,23.20
2019-06-01T06:30:26.455Z,23.00
2019-06-01T06:34:36.803Z,22.50
2019-06-01T06:38:47.091Z,22.20
2019-06-01T06:42:57.590Z,22.10
2019-06-01T06:47:07.965Z,22.40
2019-06-01T06:51:19.235Z,23.00
2019-06-01T06:55:29.656Z,23.40
2019-06-01T06:59:39.995Z,23.80
2019-06-01T07:03:50.273Z,23.30
2019-06-01T07:08:00.491Z,23.30
2019-06-01T07:12:10.795Z,23.20
2019-06-01T07:16:21.450Z,23.20
2019-06-01T07:20:32.029Z,23.20
2019-06-01T07:24:42.195Z,23.10
2019-06-01T07:28:52.487Z,23.00
2019-06-01T07:33:02.780Z,23.20
2019-06-01T07:37:13.021Z,23.40
2019-06-01T07:41:24.572Z,23.50
2019-06-01T07:45:35.398Z,23.60
2019-06-01T07:49:45.785Z,24.10
2019-06-01T07:53:56.066Z,24.20
2019-06-01T07:58:06.420Z,24.30
2019-06-01T08:02:16.728Z,24.70
2019-06-01T08:06:28.098Z,25.20
2019-06-01T08:10:38.781Z,25.60
2019-06-01T08:14:49.040Z,25.60
2019-06-01T08:18:59.309Z,25.90
2019-06-01T08:23:09.658Z,26.50
2019-06-01T08:27:19.936Z,26.90
2019-06-01T08:31:31.796Z,26.70
2019-06-01T08:35:42.186Z,26.90
2019-06-01T08:39:52.546Z,26.80
2019-06-01T08:44:02.732Z,27.00
2019-06-01T08:48:13.181Z,27.20
2019-06-01T08:52:23.861Z,27.20
2019-06-01T08:56:34.591Z,27.20
2019-06-01T09:00:47.116Z,27.50
2019-06-01T09:04:57.783Z,27.80
2019-06-01T09:09:11.739Z,27.90
2019-06-01T09:13:20.726Z,28.10
2019-06-01T09:17:31.540Z,28.00
2019-06-01T09:21:41.841Z,27.90
2019-06-01T09:25:52.034Z,27.90
2019-06-01T09:30:02.301Z,27.70
2019-06-01T09:34:12.697Z,27.50
2019-06-01T09:38:23.151Z,27.10
2019-06-01T09:42:33.772Z,27.40
2019-06-01T09:46:45.399Z,28.00
2019-06-01T09:50:55.835Z,28.40
2019-06-01T09:55:06.832Z,28.20
2019-06-01T09:59:17.058Z,28.20
2019-06-01T10:03:28.297Z,27.90
2019-06-01T10:07:39.380Z,27.40
2019-06-01T10:11:49.689Z,27.50
2019-06-01T10:15:59.892Z,27.70
2019-06-01T10:20:11.212Z,27.70
2019-06-01T10:24:21.762Z,27.50
2019-06-01T10:28:33.323Z,27.00
2019-06-01T10:32:43.911Z,27.50
2019-06-01T10:36:54.586Z,27.30
2019-06-01T10:41:05.116Z,27.40
2019-06-01T10:45:15.438Z,27.80
2019-06-01T10:49:25.962Z,28.20
2019-06-01T10:53:36.457Z,28.10
2019-06-01T10:57:46.732Z,28.20
2019-06-01T11:01:57.261Z,28.40
2019-06-01T11:06:07.538Z,28.50
2019-06-01T11:10:17.971Z,27.80
2019-06-01T11:14:28.521Z,27.60
2019-06-01T11:18:39.626Z,28.00
2019-06-01T11:22:50.007Z,27.90
2019-06-01T11:27:00.386Z,28.30
2019-06-01T11:31:10.729Z,28.60
2019-06-01T11:35:21.285Z,28.30
2019-06-01T11:39:31.818Z,28.60
2019-06-01T11:43:42.714Z,28.70
2019-06-01T11:47:53.807Z,28.40
2019-06-01T11:52:05.038Z,28.20
2019-06-01T11:56:15.788Z,28.10
2019-06-01T12:00:27.819Z,28.10
2019-06-01T12:04:39.804Z,28.10
2019-06-01T12:08:50.731Z,28.00
2019-06-01T12:13:01.491Z,27.90
2019-06-01T12:17:12.714Z,27.80
2019-06-01T12:21:23.433Z,27.70
2019-06-01T12:25:34.466Z,27.80
2019-06-01T12:29:45.831Z,27.90
2019-06-01T12:33:56.601Z,28.20
2019-06-01T12:38:08.009Z,28.10
2019-06-01T12:42:18.902Z,27.80
2019-06-01T12:46:30.144Z,27.70
2019-06-01T12:50:42.045Z,28.00
2019-06-01T12:54:53.479Z,28.00
2019-06-01T12:59:04.683Z,27.80
2019-06-01T13:03:15.427Z,27.80
2019-06-01T13:07:25.926Z,27.90
2019-06-01T13:11:36.767Z,28.20
2019-06-01T13:15:47.322Z,28.00
2019-06-01T13:19:57.599Z,27.70
2019-06-01T13:24:07.953Z,27.40
2019-06-01T13:28:18.283Z,27.60
2019-06-01T13:32:28.521Z,27.80
2019-06-01T13:36:38.835Z,27.70
2019-06-01T13:40:51.078Z,27.80
2019-06-01T13:45:01.656Z,27.80
2019-06-01T13:49:12.367Z,27.90
2019-06-01T13:53:22.589Z,27.70
2019-06-01T13:57:32.831Z,27.40
2019-06-01T14:01:44.877Z,27.50
2019-06-01T14:05:55.392Z,27.70
2019-06-01T14:10:07.418Z,27.80
2019-06-01T14:14:17.891Z,27.90
2019-06-01T14:18:28.251Z,27.90
2019-06-01T14:22:38.484Z,27.90
2019-06-01T14:26:49.826Z,27.80
2019-06-01T14:31:00.283Z,27.90
2019-06-01T14:35:10.897Z,27.70
2019-06-01T14:39:21.470Z,27.80
2019-06-01T14:43:32.122Z,27.60
2019-06-01T14:47:42.508Z,27.80
2019-06-01T14:51:53.692Z,28.00
2019-06-01T14:56:04.410Z,28.00
2019-06-01T15:00:16.788Z,27.70
2019-06-01T15:04:27.081Z,27.80
2019-06-01T15:08:38.299Z,28.00
2019-06-01T15:12:54.664Z,28.00
2019-06-01T15:17:02.192Z,28.10
2019-06-01T15:21:12.487Z,28.20
2019-06-01T15:25:22.672Z,27.90
2019-06-01T15:29:32.926Z,27.50
2019-06-01T15:33:43.173Z,27.60
2019-06-01T15:37:57.179Z,27.70
2019-06-01T15:42:05.263Z,28.00
2019-06-01T15:46:15.729Z,28.10
2019-06-01T15:50:26.404Z,28.10
2019-06-01T15:54:36.843Z,28.00
2019-06-01T15:58:53.152Z,27.70
2019-06-01T16:02:59.062Z,27.50
2019-06-01T16:07:09.337Z,27.70
2019-06-01T16:11:21.314Z,27.80
2019-06-01T16:15:31.529Z,27.90
2019-06-01T16:19:41.871Z,27.80
2019-06-01T16:23:52.099Z,27.70
2019-06-01T16:28:03.563Z,27.70
2019-06-01T16:32:14.415Z,27.80
2019-06-01T16:36:24.618Z,27.70
2019-06-01T16:40:36.547Z,27.50
2019-06-01T16:44:47.732Z,27.50
2019-06-01T16:48:58.077Z,27.60
2019-06-01T16:53:08.363Z,27.40
2019-06-01T16:57:18.653Z,27.40
2019-06-01T17:01:28.946Z,27.30
2019-06-01T17:05:39.476Z,27.30
2019-06-01T17:09:49.895Z,27.30
2019-06-01T17:14:00.771Z,27.30
2019-06-01T17:18:11.043Z,27.20
2019-06-01T17:22:21.458Z,27.00
2019-06-01T17:26:31.765Z,26.80
2019-06-01T17:30:42.169Z,26.80
2019-06-01T17:34:52.466Z,26.70
2019-06-01T17:39:03.720Z,26.70
2019-06-01T17:43:14.405Z,26.60
2019-06-01T17:47:27.363Z,26.60
2019-06-01T17:51:36.886Z,26.50
2019-06-01T17:55:47.132Z,26.40
2019-06-01T17:59:57.498Z,26.40
2019-06-01T18:04:09.956Z,26.30
2019-06-01T18:08:20.675Z,26.20
2019-06-01T18:12:31.920Z,26.10
2019-06-01T18:16:42.167Z,26.10
2019-06-01T18:20:52.463Z,25.90
2019-06-01T18:25:02.762Z,25.90
2019-06-01T18:29:13.055Z,25.80
2019-06-01T18:33:23.936Z,25.70
2019-06-01T18:37:35.890Z,25.60
2019-06-01T18:41:46.362Z,25.50
2019-06-01T18:45:57.251Z,25.40
2019-06-01T18:50:10.034Z,25.40
2019-06-01T18:54:21.180Z,25.30
2019-06-01T18:58:31.536Z,25.20
2019-06-01T19:02:42.075Z,25.10
2019-06-01T19:06:52.676Z,24.90
2019-06-01T19:11:02.904Z,24.80
2019-06-01T19:15:26.654Z,24.60
2019-06-01T19:19:26.927Z,24.50
2019-06-01T19:23:37.134Z,24.40
2019-06-01T19:27:47.373Z,24.30
2019-06-01T19:31:57.584Z,24.20
2019-06-01T19:36:08.834Z,24.10
2019-06-01T19:40:22.225Z,23.90
2019-06-01T19:44:36.405Z,23.80
2019-06-01T19:48:44.919Z,23.60
2019-06-01T19:52:55.171Z,23.40
2019-06-01T19:57:05.528Z,23.30
2019-06-01T20:01:16.323Z,23.20
2019-06-01T20:05:26.601Z,23.20
2019-06-01T20:09:37.406Z,23.00
2019-06-01T20:13:47.630Z,22.90
2019-06-01T20:17:57.872Z,22.80
2019-06-01T20:22:08.174Z,22.70
2019-06-01T20:26:19.467Z,22.50
2019-06-01T20:30:29.656Z,22.40
2019-06-01T20:34:39.991Z,22.30
2019-06-01T20:38:51.824Z,22.30
2019-06-01T20:43:02.502Z,22.20
2019-06-01T20:47:14.586Z,22.20
2019-06-01T20:51:27.659Z,22.20
2019-06-01T20:55:37.096Z,22.20
2019-06-01T20:59:47.743Z,22.10
2019-06-01T21:03:58.189Z,22.00
2019-06-01T21:08:08.551Z,21.90
2019-06-01T21:12:20.177Z,21.90
2019-06-01T21:16:30.545Z,21.90
2019-06-01T21:20:40.772Z,21.80
2019-06-01T21:24:51.112Z,21.80
2019-06-01T21:29:01.365Z,21.80
2019-06-01T21:33:11.876Z,21.70
2019-06-01T21:37:23.431Z,21.70
2019-06-01T21:41:33.848Z,21.60
2019-06-01T21:45:45.022Z,21.60
2019-06-01T21:49:55.403Z,21.50
2019-06-01T21:54:05.816Z,21.40
2019-06-01T21:58:16.538Z,21.40
2019-06-01T22:02:27.229Z,21.30
2019-06-01T22:06:37.770Z,21.10
2019-06-01T22:10:48.073Z,21.00
2019-06-01T22:14:58.611Z,20.90
2019-06-01T22:19:10.683Z,20.80
2019-06-01T22:23:21.949Z,20.70
2019-06-01T22:27:33.973Z,20.70
2019-06-01T22:31:44.787Z,20.50
2019-06-01T22:35:54.978Z,20.40
2019-06-01T22:40:06.828Z,20.30
2019-06-01T22:44:17.137Z,20.20
2019-06-01T22:48:29.008Z,20.10
2019-06-01T22:52:41.622Z,20.00
2019-06-01T22:56:53.020Z,19.80
2019-06-01T23:01:04.937Z,19.80
2019-06-01T23:05:15.388Z,19.60
2019-06-01T23:09:27.305Z,19.50
2019-06-01T23:13:52.250Z,19.40
2019-06-01T23:17:51.804Z,19.30
2019-06-01T23:22:03.883Z,19.20
2019-06-01T23:26:14.332Z,19.10
2019-06-01T23:30:30.263Z,19.10
2019-06-01T23:34:42.001Z,19.10
2019-06-01T23:38:52.417Z,19.00
2019-06-01T23:43:06.960Z,19.00
2019-06-01T23:47:17.507Z,18.90
2019-06-01T23:51:28.062Z,18.90
2019-06-01T23:55:39.945Z,18.80
2019-06-01T23:59:50.513Z,18.70
